Time;durP1;ratioP1;P1;durP2;ratioP2;P2;SDS_P1;SDS_P2;PMS_P1;PMS_P2;Temp;Humidity;BMP_temperature;BMP_pressure;BME280_temperature;BME280_humidity;BME280_pressure;Samples;Min_cycle;Max_cycle;Signal;HPM_P1;HPM_P2
2022/03/22 00:00:13;;;;;;;6.75;3.05;;;;;;;3.98;33.24;101928.66;4428686;32;33697;-84
2022/03/22 00:02:42;;;;;;;;;;;;;;;3.76;33.66;101931.16;4414836;32;33939;-84
2022/03/22 00:05:11;;;;;;;6.82;3.78;;;;;;;4.11;32.98;101929.97;4414381;32;34852;-83
2022/03/22 00:07:38;;;;;;;2.97;2.78;;;;;;;3.71;34.17;101932.22;4428480;32;35017;-84
2022/03/22 00:10:07;;;;;;;9.80;4.30;;;;;;;3.78;34.04;101931.09;4416142;32;33874;-86
2022/03/22 00:12:35;;;;;;;2.50;2.28;;;;;;;3.75;34.59;101934.69;4416317;32;33541;-85
2022/03/22 00:15:03;;;;;;;;;;;;;;;3.99;33.59;101933.03;4404215;32;35071;-87
2022/03/22 00:17:51;;;;;;;3.33;2.17;;;;;;;4.05;33.23;101940.72;4418274;32;34005;-85
2022/03/22 00:20:18;;;;;;;4.40;1.75;;;;;;;4.01;34.05;101932.06;4403393;32;32786;-85
2022/03/22 00:22:48;;;;;;;3.37;2.47;;;;;;;3.80;34.18;101927.50;4416388;32;34240;-85
2022/03/22 00:25:18;;;;;;;4.05;2.33;;;;;;;3.80;34.18;101926.66;4416152;32;35231;-85
2022/03/22 00:27:53;;;;;;;4.50;3.03;;;;;;;3.77;33.73;101926.75;4416081;32;34462;-85
2022/03/22 00:30:27;;;;;;;6.03;3.67;;;;;;;3.90;33.55;101931.56;4404648;32;31289;-85
2022/03/22 00:32:57;;;;;;;8.52;3.15;;;;;;;3.86;33.59;101937.00;4430704;32;33385;-85
2022/03/22 00:35:27;;;;;;;6.18;2.50;;;;;;;3.73;34.00;101927.75;4400577;32;33358;-84
2022/03/22 00:37:56;;;;;;;4.18;3.25;;;;;;;3.79;33.83;101925.78;4415778;32;34905;-85
2022/03/22 00:40:26;;;;;;;6.47;2.83;;;;;;;3.67;33.90;101931.44;4430677;32;33120;-85
2022/03/22 00:42:57;;;;;;;4.30;2.87;;;;;;;3.77;33.99;101926.75;4403742;32;32986;-85
2022/03/22 00:45:33;;;;;;;3.08;2.55;;;;;;;3.73;33.88;101931.25;4403689;32;34797;-85
2022/03/22 00:48:03;;;;;;;5.30;3.90;;;;;;;3.64;34.27;101926.28;4430142;32;35075;-84
2022/03/22 00:50:35;;;;;;;6.47;3.08;;;;;;;3.57;34.21;101927.38;4390870;32;32483;-85
2022/03/22 00:53:05;;;;;;;4.03;2.03;;;;;;;3.64;34.09;101931.56;4404115;32;33490;-85
2022/03/22 00:55:32;;;;;;;4.53;2.75;;;;;;;3.83;34.20;101922.16;4417495;32;34572;-85
2022/03/22 00:58:00;;;;;;;4.57;3.70;;;;;;;3.71;34.54;101925.16;4417481;32;34606;-85
2022/03/22 01:00:27;;;;;;;8.93;3.33;;;;;;;3.76;34.69;101927.63;4417530;32;32719;-84
2022/03/22 01:02:58;;;;;;;;;;;;;;;3.86;34.36;101919.41;4431626;32;34294;-84
2022/03/22 01:05:27;;;;;;;3.92;2.83;;;;;;;3.27;35.29;101924.84;4416943;32;35304;-84
2022/03/22 01:08:01;;;;;;;4.20;2.15;;;;;;;3.58;34.59;101928.25;4431150;32;33489;-85
2022/03/22 01:10:30;;;;;;;3.85;2.45;;;;;;;3.52;34.76;101917.91;4416561;32;33414;-85
2022/03/22 01:12:59;;;;;;;7.10;3.58;;;;;;;3.59;34.68;101930.81;4415843;32;33534;-85
2022/03/22 01:15:34;;;;;;;6.18;2.00;;;;;;;3.55;34.55;101928.34;4416107;32;34472;-85
2022/03/22 01:18:08;;;;;;;2.40;1.87;;;;;;;3.39;34.97;101920.06;4416179;32;34442;-84
2022/03/22 01:20:41;;;;;;;4.65;2.90;;;;;;;3.55;34.49;101918.69;4416040;32;32866;-86
2022/03/22 01:23:10;;;;;;;7.18;4.43;;;;;;;3.42;34.60;101914.72;4403615;32;34076;-85
2022/03/22 01:25:39;;;;;;;4.32;3.00;;;;;;;3.72;34.00;101907.59;4429526;32;35114;-85
2022/03/22 01:28:09;;;;;;;4.95;2.58;;;;;;;3.42;34.52;101912.06;4415757;32;34029;-84
2022/03/22 01:30:37;;;;;;;2.55;1.80;;;;;;;3.49;34.73;101913.62;4410907;32;33489;-84
2022/03/22 01:33:06;;;;;;;6.32;2.90;;;;;;;3.31;35.07;101906.28;4390942;32;32929;-85
2022/03/22 01:35:33;;;;;;;3.17;2.25;;;;;;;3.32;35.38;101910.66;4415957;32;35670;-85
2022/03/22 01:38:01;;;;;;;2.87;2.47;;;;;;;3.46;35.31;101907.59;4403422;32;34724;-86
2022/03/22 01:40:30;;;;;;;2.58;2.22;;;;;;;3.27;35.62;101912.56;4415802;32;34099;-84
2022/03/22 01:42:58;;;;;;;3.37;2.03;;;;;;;3.36;35.56;101909.66;4415800;32;34504;-85
2022/03/22 01:45:26;;;;;;;2.72;2.45;;;;;;;3.28;35.32;101908.16;4415794;32;34712;-84
2022/03/22 01:47:58;;;;;;;7.25;2.45;;;;;;;3.46;34.96;101900.56;4430169;32;33924;-84
2022/03/22 01:50:27;;;;;;;2.87;2.65;;;;;;;3.36;35.12;101911.41;4403671;32;33729;-85
2022/03/22 01:52:56;;;;;;;4.12;1.77;;;;;;;3.46;35.03;101915.47;4415927;32;33568;-85
2022/03/22 01:55:26;;;;;;;4.18;2.45;;;;;;;3.33;35.10;101908.91;4403133;32;35727;-85
2022/03/22 01:57:55;;;;;;;2.58;2.30;;;;;;;3.48;34.76;101901.37;4403791;32;33812;-85
2022/03/22 02:00:24;;;;;;;6.57;3.42;;;;;;;3.54;34.64;101909.06;4416042;32;33340;-86
2022/03/22 02:05:56;;;;;;;8.15;2.90;;;;;;;3.39;34.86;101906.03;4415313;32;34112;-85
2022/03/22 02:08:27;;;;;;;5.00;2.95;;;;;;;3.66;34.46;101903.41;4416215;32;34449;-84
2022/03/22 02:11:00;;;;;;;5.12;1.98;;;;;;;3.65;34.38;101895.56;4403079;32;32681;-85
2022/03/22 02:13:29;;;;;;;3.08;2.72;;;;;;;3.60;34.20;101895.69;4429989;32;34354;-85
2022/03/22 02:15:59;;;;;;;3.65;2.80;;;;;;;3.58;34.42;101888.78;4415706;32;34255;-86
2022/03/22 02:18:26;;;;;;;4.50;2.90;;;;;;;3.73;33.88;101891.78;4415527;32;34506;-84
2022/03/22 02:20:54;;;;;;;10.45;3.20;;;;;;;3.61;34.08;101893.94;4415520;32;32871;-85
2022/03/22 02:23:48;;;;;;;3.35;2.78;;;;;;;3.61;33.90;101891.31;4429808;32;33990;-84
2022/03/22 02:26:18;;;;;;;3.87;2.65;;;;;;;3.64;34.01;101892.06;4415302;32;35510;-86
2022/03/22 02:28:46;;;;;;;3.65;2.80;;;;;;;3.65;34.09;101885.91;4402970;32;34542;-84
2022/03/22 02:31:14;;;;;;;13.20;1.77;;;;;;;3.44;34.43;101883.97;4414853;32;32907;-87
2022/03/22 02:33:42;;;;;;;3.12;1.98;;;;;;;3.79;33.70;101882.81;4428796;32;33572;-85
2022/03/22 02:36:10;;;;;;;5.85;3.05;;;;;;;3.82;33.44;101883.56;4402711;32;35021;-85
2022/03/22 02:38:38;;;;;;;2.92;2.40;;;;;;;3.78;33.45;101879.31;4415123;32;34497;-86
2022/03/22 02:41:06;;;;;;;3.08;2.45;;;;;;;3.68;34.15;101882.31;4414926;32;33205;-85
2022/03/22 02:43:34;;;;;;;4.15;2.05;;;;;;;3.68;34.00;101885.78;4410517;32;34622;-85
2022/03/22 02:46:02;;;;;;;7.07;2.53;;;;;;;3.73;34.11;101880.38;4429534;32;34445;-86
2022/03/22 02:48:29;;;;;;;3.25;2.40;;;;;;;3.57;34.68;101887.91;4429386;32;34444;-85
2022/03/22 02:50:57;;;;;;;3.45;2.12;;;;;;;3.44;34.94;101891.88;4415455;32;34301;-86
2022/03/22 02:53:24;;;;;;;3.17;2.67;;;;;;;3.32;35.47;101891.37;4429429;32;34554;-85
2022/03/22 02:55:52;;;;;;;3.67;3.15;;;;;;;3.47;34.75;101890.87;4415569;32;34596;-85
2022/03/22 02:58:20;;;;;;;2.85;2.45;;;;;;;3.47;34.61;101883.88;4429278;32;35076;-84
2022/03/22 03:00:47;;;;;;;7.28;2.45;;;;;;;3.61;34.36;101888.69;4402590;32;32537;-85
2022/03/22 03:03:19;;;;;;;4.50;3.10;;;;;;;3.58;34.29;101889.62;4402485;32;33817;-85
2022/03/22 03:05:49;;;;;;;2.17;1.98;;;;;;;3.65;34.00;101885.91;4429480;32;35596;-86
2022/03/22 03:08:18;;;;;;;2.35;2.17;;;;;;;3.68;34.11;101888.41;4416191;32;34131;-85
2022/03/22 03:10:46;;;;;;;4.93;2.85;;;;;;;3.65;33.94;101891.16;4402606;32;32682;-84
2022/03/22 03:13:14;;;;;;;3.17;2.67;;;;;;;3.60;34.42;101893.06;4403848;32;34139;-86
2022/03/22 03:15:41;;;;;;;5.75;3.35;;;;;;;3.44;35.10;101891.88;4430927;32;34488;-85
2022/03/22 03:18:10;;;;;;;4.03;2.12;;;;;;;3.19;35.68;101901.44;4430460;32;34425;-83
2022/03/22 03:20:39;;;;;;;5.47;3.90;;;;;;;3.46;35.18;101899.69;4416323;32;33402;-85
2022/03/22 03:23:07;;;;;;;4.68;2.08;;;;;;;3.52;34.93;101899.50;4391032;32;32483;-85
2022/03/22 03:25:35;;;;;;;5.00;2.42;;;;;;;3.34;35.32;101900.94;4414486;32;36733;-85
2022/03/22 03:28:03;;;;;;;5.60;2.42;;;;;;;3.26;35.21;101908.22;4429025;32;34399;-84
2022/03/22 03:30:31;;;;;;;2.95;2.45;;;;;;;3.45;35.13;101906.75;4415109;32;33333;-85
2022/03/22 03:32:58;;;;;;;2.17;1.98;;;;;;;3.52;34.82;101902.13;4402270;32;32817;-85
2022/03/22 03:35:26;;;;;;;3.85;3.40;;;;;;;3.39;35.17;101911.31;4428904;32;34732;-85
2022/03/22 03:37:54;;;;;;;6.45;3.00;;;;;;;3.36;35.09;101907.03;4414932;32;34080;-84
2022/03/22 03:41:53;;;;;;;4.20;1.98;;;;;;;3.34;35.12;101900.09;4401970;32;33413;-85
2022/03/22 03:43:09;;;;;;;4.03;2.37;;;;;;;3.32;35.16;101905.38;4404503;32;32410;-83
2022/03/22 03:48:23;;;;;;;4.60;2.50;;;;;;;3.30;35.03;101891.44;4405727;32;33405;-85
2022/03/22 03:50:50;;;;;;;5.18;2.37;;;;;;;3.28;35.33;101895.88;4416644;32;33819;-83
2022/03/22 03:53:18;;;;;;;5.68;3.92;;;;;;;3.32;35.21;101889.59;4403819;32;32788;-86
2022/03/22 03:55:45;;;;;;;4.40;2.20;;;;;;;3.31;35.41;101901.03;4416650;32;35052;-85
2022/03/22 03:58:13;;;;;;;3.15;2.85;;;;;;;3.17;35.79;101895.34;4416434;32;33576;-85
2022/03/22 04:00:40;;;;;;;3.80;2.58;;;;;;;3.29;35.34;101900.22;4416438;32;31878;-84
2022/03/22 04:03:08;;;;;;;7.47;2.25;;;;;;;3.01;36.05;101909.88;4430601;32;33670;-84
2022/03/22 04:05:36;;;;;;;6.18;2.05;;;;;;;2.93;36.17;101909.22;4403201;32;34684;-85
2022/03/22 04:08:10;;;;;;;3.08;2.45;;;;;;;2.76;36.19;101906.22;4405485;32;33778;-85
2022/03/22 04:10:37;;;;;;;2.75;2.45;;;;;;;2.94;36.13;101905.69;4416494;32;33274;-86
2022/03/22 04:13:04;;;;;;;3.55;2.42;;;;;;;2.96;35.78;101909.13;4416617;32;33392;-85
2022/03/22 04:15:32;;;;;;;8.00;3.12;;;;;;;3.04;35.71;101912.41;4416067;32;35842;-84
2022/03/22 04:17:59;;;;;;;3.00;2.70;;;;;;;2.90;36.20;101905.84;4430812;32;34543;-84
2022/03/22 04:20:27;;;;;;;3.75;2.62;;;;;;;3.06;35.52;101915.00;4403909;32;33143;-85
2022/03/22 04:22:55;;;;;;;3.33;1.92;;;;;;;3.22;34.88;101914.47;4416908;32;33110;-86
2022/03/22 04:25:22;;;;;;;7.82;2.33;;;;;;;3.23;34.90;101917.97;4416023;32;34808;-84
2022/03/22 04:33:23;;;;;;;2.78;2.08;;;;;;;3.15;34.79;101925.25;4416117;32;32615;-85
2022/03/22 04:35:51;;;;;;;4.53;1.92;;;;;;;3.14;34.83;101921.72;4403405;32;33524;-86
2022/03/22 04:38:18;;;;;;;5.97;2.40;;;;;;;3.18;35.33;101933.03;4416740;32;34927;-85
2022/03/22 04:40:47;;;;;;;3.28;2.05;;;;;;;3.23;34.96;101931.13;4415413;32;33535;-85
2022/03/22 04:43:20;;;;;;;4.53;2.58;;;;;;;3.19;35.04;101926.84;4405048;32;33448;-86
2022/03/22 04:45:48;;;;;;;1.90;1.77;;;;;;;2.95;35.52;101933.69;4416719;32;33829;-85
2022/03/22 04:48:15;;;;;;;2.92;2.47;;;;;;;2.86;36.24;101938.37;4417365;32;34957;-85
2022/03/22 04:50:43;;;;;;;3.30;2.03;;;;;;;2.94;36.00;101942.50;4417059;32;33977;-85
2022/03/22 04:58:45;;;;;;;2.78;1.77;;;;;;;2.90;36.39;101946.13;4428518;32;34224;-85
2022/03/22 05:01:14;;;;;;;4.22;2.55;;;;;;;2.89;36.39;101941.78;4416701;32;34689;-86
2022/03/22 05:03:43;;;;;;;2.78;1.85;;;;;;;3.04;36.10;101941.31;4430104;32;33604;-87
2022/03/22 05:06:26;;;;;;;2.90;2.58;;;;;;;2.75;36.78;101937.84;4403484;32;35825;-83
2022/03/22 05:08:54;;;;;;;2.62;1.90;;;;;;;2.82;36.78;101942.88;4418008;32;34741;-84
2022/03/22 05:11:22;;;;;;;2.12;1.92;;;;;;;3.05;36.39;101942.19;4416366;32;34376;-85
2022/03/22 05:13:50;;;;;;;;;;;;;;;2.75;36.66;101943.94;4415339;32;33454;-85
2022/03/22 05:16:19;;;;;;;4.25;2.55;;;;;;;2.89;36.45;101948.81;4403291;32;33943;-86
2022/03/22 05:18:47;;;;;;;3.83;3.00;;;;;;;3.07;36.10;101943.00;4403334;32;34745;-85
2022/03/22 05:21:15;;;;;;;10.73;2.72;;;;;;;3.07;36.03;101938.63;4416320;32;34041;-84
2022/03/22 05:23:47;;;;;;;3.72;2.50;;;;;;;3.17;35.81;101944.44;4404333;32;33328;-86
2022/03/22 05:26:15;;;;;;;4.25;2.05;;;;;;;3.25;35.70;101945.09;4403501;32;35033;-86
2022/03/22 05:28:46;;;;;;;3.72;1.95;;;;;;;3.19;35.97;101935.63;4430063;32;34227;-85
2022/03/22 05:31:16;;;;;;;6.50;2.50;;;;;;;3.24;35.81;101948.63;4391060;32;32383;-86
2022/03/22 05:33:44;;;;;;;2.67;2.22;;;;;;;3.35;35.62;101944.78;4415781;32;34478;-87
2022/03/22 05:36:12;;;;;;;1.77;1.67;;;;;;;3.39;35.80;101945.50;4416141;32;35390;-86
2022/03/22 05:38:40;;;;;;;4.40;2.40;;;;;;;3.08;36.54;101942.09;4429623;32;33737;-86
2022/03/22 05:41:08;;;;;;;5.50;2.90;;;;;;;3.33;36.56;101945.72;4415536;32;33521;-85
2022/03/22 05:43:36;;;;;;;4.82;2.87;;;;;;;3.40;36.50;101948.09;4415685;32;33192;-87
2022/03/22 05:46:03;;;;;;;;;;;;;;;3.46;36.42;101945.28;4430174;32;34923;-85
2022/03/22 05:48:31;;;;;;;4.28;2.92;;;;;;;3.30;36.50;101949.28;4415361;32;34579;-88
2022/03/22 05:50:59;;;;;;;8.68;3.97;;;;;;;3.64;35.96;101951.72;4406933;32;32352;-88
2022/03/22 05:53:26;;;;;;;3.97;2.92;;;;;;;3.76;35.68;101944.31;4400502;32;33505;-82
2022/03/22 05:55:54;;;;;;;2.53;2.05;;;;;;;3.92;35.70;101942.91;4415925;32;34745;-86
2022/03/22 05:58:22;;;;;;;3.30;1.90;;;;;;;4.20;35.36;101954.22;4415434;32;34532;-90
2022/03/22 06:00:58;;;;;;;4.47;2.75;;;;;;;4.25;34.96;101954.06;4380334;32;31525;-89
2022/03/22 06:03:26;;;;;;;3.75;2.97;;;;;;;4.39;35.06;101954.44;4403143;32;33121;-84
2022/03/22 06:05:54;;;;;;;5.53;1.92;;;;;;;4.30;34.92;101952.13;4427203;32;34716;-83
2022/03/22 06:08:21;;;;;;;6.93;3.53;;;;;;;4.53;34.97;101960.13;4414142;32;34302;-83
2022/03/22 06:10:49;;;;;;;5.57;4.15;;;;;;;4.62;35.03;101957.16;4415711;32;31592;-83
2022/03/22 06:13:17;;;;;;;7.80;3.28;;;;;;;4.69;35.36;101959.50;4401310;32;33584;-84
2022/03/22 06:15:52;;;;;;;5.20;3.47;;;;;;;4.80;35.64;101962.59;4429632;32;35942;-83
2022/03/22 06:18:20;;;;;;;4.43;4.00;;;;;;;4.83;34.97;101957.22;4422782;32;34386;-84
2022/03/22 06:20:47;;;;;;;;;;;;;;;4.99;35.16;101954.91;4415360;32;33196;-84
2022/03/22 06:23:17;;;;;;;4.57;3.67;;;;;;;5.50;34.22;101954.59;4428346;32;33994;-85
2022/03/22 06:25:44;;;;;;;5.47;3.45;;;;;;;5.48;34.20;101958.22;4429159;32;35098;-87
2022/03/22 06:28:14;;;;;;;4.18;3.80;;;;;;;5.86;33.33;101955.81;4415031;32;34297;-85
2022/03/22 06:30:42;;;;;;;4.30;3.85;;;;;;;5.84;33.53;101962.94;4414095;32;32350;-86
2022/03/22 06:33:12;;;;;;;8.20;4.20;;;;;;;6.19;32.73;101958.84;4413267;32;33627;-86
2022/03/22 06:35:42;;;;;;;6.47;4.22;;;;;;;6.39;32.69;101961.47;4413276;32;33401;-88
2022/03/22 06:38:10;;;;;;;4.70;3.78;;;;;;;6.73;32.00;101959.94;4413729;32;34962;-85
2022/03/22 06:40:39;;;;;;;4.78;3.92;;;;;;;6.94;31.23;101966.06;4427693;32;32840;-82
2022/03/22 06:43:12;;;;;;;8.35;4.75;;;;;;;7.27;30.85;101961.91;4415483;32;33723;-86
2022/03/22 06:45:40;;;;;;;3.95;3.65;;;;;;;7.29;30.95;101963.53;4429530;32;35572;-86
2022/03/22 06:48:08;;;;;;;4.72;4.32;;;;;;;7.48;31.00;101963.53;4415415;32;34788;-91
2022/03/22 06:50:36;;;;;;;;;;;;;;;7.69;30.63;101965.16;4415705;32;33349;-89
2022/03/22 06:53:05;;;;;;;9.38;5.87;;;;;;;8.02;30.65;101960.88;4415371;32;34150;-85
2022/03/22 06:55:34;;;;;;;8.02;3.75;;;;;;;8.15;29.97;101949.59;4401720;32;34411;-87
2022/03/22 06:58:02;;;;;;;8.07;5.62;;;;;;;8.19;29.78;101956.47;4414054;32;34504;-87
2022/03/22 07:00:31;;;;;;;5.12;4.62;;;;;;;8.37;29.61;101955.53;4403213;32;33386;-86
2022/03/22 07:03:01;;;;;;;5.45;4.70;;;;;;;8.62;29.26;101956.00;4416520;32;33961;-86
2022/03/22 07:05:29;;;;;;;5.95;4.78;;;;;;;8.98;28.63;101957.56;4416205;32;35120;-86
2022/03/22 07:07:57;;;;;;;7.32;5.75;;;;;;;9.18;28.73;101959.16;4430302;32;34294;-85
2022/03/22 07:10:25;;;;;;;;;;;;;;;9.44;27.71;101955.94;4403451;32;32998;-87
2022/03/22 07:12:56;;;;;;;12.27;5.68;;;;;;;9.78;27.23;101951.28;4403032;32;33674;-86
2022/03/22 07:15:33;;;;;;;3.67;3.37;;;;;;;9.96;27.36;101950.22;4428101;32;33847;-86
2022/03/22 07:18:02;;;;;;;5.78;4.85;;;;;;;10.17;26.96;101948.16;4401373;32;34173;-88
2022/03/22 07:20:30;;;;;;;6.70;6.03;;;;;;;10.24;26.76;101952.16;4413885;32;32918;-86
2022/03/22 07:22:59;;;;;;;6.40;5.50;;;;;;;10.51;25.69;101953.19;4413858;32;34746;-86
2022/03/22 07:25:27;;;;;;;5.97;4.30;;;;;;;10.76;25.80;101953.44;4401364;32;34756;-87
2022/03/22 07:27:55;;;;;;;4.93;4.53;;;;;;;10.88;25.30;101947.34;4428876;32;34039;-84
2022/03/22 07:30:23;;;;;;;5.43;4.90;;;;;;;11.16;25.06;101950.88;4429371;32;33423;-85
2022/03/22 07:32:50;;;;;;;5.40;4.70;;;;;;;11.30;24.23;101950.84;4414975;32;34773;-85
2022/03/22 07:35:19;;;;;;;7.20;6.22;;;;;;;11.49;23.67;101954.06;4414806;32;34242;-85
2022/03/22 07:37:48;;;;;;;9.40;5.72;;;;;;;11.71;23.76;101949.97;4415560;32;34025;-84
2022/03/22 07:40:18;;;;;;;7.18;6.45;;;;;;;11.78;23.44;101945.94;4428966;32;33824;-87
2022/03/22 07:42:48;;;;;;;7.10;6.40;;;;;;;12.12;23.79;101947.25;4428928;32;33283;-85
2022/03/22 07:45:19;;;;;;;7.57;5.20;;;;;;;12.42;22.65;101939.84;4415330;32;35861;-88
2022/03/22 07:47:48;;;;;;;7.35;6.50;;;;;;;12.56;22.98;101945.09;4415349;32;35977;-87
2022/03/22 07:53:05;;;;;;;6.70;6.15;;;;;;;12.96;21.63;101942.25;4416921;32;33829;-85
2022/03/22 07:55:41;;;;;;;14.00;7.87;;;;;;;13.27;21.20;101939.13;4414830;32;35850;-87
2022/03/22 07:58:10;;;;;;;7.28;6.57;;;;;;;13.33;21.01;101943.16;4428790;32;34611;-85
2022/03/22 08:00:38;;;;;;;;;;;;;;;13.46;21.32;101944.00;4414116;32;33344;-87
2022/03/22 08:03:09;;;;;;;9.13;8.07;;;;;;;13.56;20.97;101945.91;4412721;32;33737;-85
2022/03/22 08:05:38;;;;;;;7.75;7.03;;;;;;;13.49;21.79;101949.13;4414546;32;35541;-86
2022/03/22 08:08:06;;;;;;;9.43;8.40;;;;;;;13.75;20.87;101937.38;4414002;32;34842;-86
2022/03/22 08:10:54;;;;;;;8.48;7.78;;;;;;;13.91;20.55;101937.94;4415104;32;32576;-84
2022/03/22 08:13:21;;;;;;;9.70;8.82;;;;;;;13.91;20.62;101936.16;4413897;32;33901;-87
2022/03/22 08:15:48;;;;;;;7.70;7.03;;;;;;;13.93;20.44;101938.69;4428232;32;34485;-88
2022/03/22 08:18:17;;;;;;;;;;;;;;;14.01;20.46;101930.94;4428467;32;33932;-86
2022/03/22 08:20:44;;;;;;;8.55;7.72;;;;;;;14.24;20.17;101935.47;4428357;32;33507;-86
2022/03/22 08:23:12;;;;;;;7.03;6.45;;;;;;;13.86;20.66;101930.25;4414015;32;33868;-84
2022/03/22 08:25:41;;;;;;;13.82;7.60;;;;;;;14.01;20.69;101930.94;4413909;32;34547;-87
2022/03/22 08:28:10;;;;;;;7.75;6.72;;;;;;;14.29;20.09;101922.56;4414100;32;35186;-85
2022/03/22 08:30:39;;;;;;;8.25;6.50;;;;;;;14.26;20.42;101917.47;4429094;32;33139;-87
2022/03/22 08:33:09;;;;;;;8.88;7.90;;;;;;;14.51;19.96;101926.19;4416965;32;33380;-86
2022/03/22 08:35:39;;;;;;;7.53;6.28;;;;;;;14.58;19.94;101922.06;4403457;32;33565;-86
2022/03/22 08:38:07;;;;;;;10.55;7.10;;;;;;;14.55;19.96;101922.31;4403498;32;33734;-86
2022/03/22 08:40:34;;;;;;;6.43;5.90;;;;;;;14.59;21.33;101930.00;4415758;32;33932;-87
2022/03/22 08:43:06;;;;;;;7.72;6.90;;;;;;;14.46;20.01;101923.84;4430081;32;33480;-84
2022/03/22 08:45:35;;;;;;;13.30;8.02;;;;;;;14.67;19.83;101930.22;4416067;32;34512;-87
2022/03/22 08:48:09;;;;;;;7.30;5.47;;;;;;;14.46;20.14;101917.66;4403116;32;35670;-87
2022/03/22 08:50:43;;;;;;;8.52;6.15;;;;;;;14.81;20.25;101916.62;4403548;32;31883;-86
2022/03/22 08:53:12;;;;;;;7.05;5.95;;;;;;;15.37;19.26;101914.81;4394749;32;33308;-85
2022/03/22 08:55:47;;;;;;;8.00;7.20;;;;;;;15.41;18.92;101913.59;4414627;32;34970;-86
2022/03/22 08:58:16;;;;;;;5.18;4.78;;;;;;;15.39;18.72;101905.66;4402452;32;34126;-87
2022/03/22 09:00:47;;;;;;;7.93;7.25;;;;;;;15.30;18.72;101916.28;4402227;32;34270;-88
2022/03/22 09:03:15;;;;;;;7.57;5.45;;;;;;;15.69;18.69;101896.97;4421276;32;34779;-84
2022/03/22 09:08:29;;;;;;;7.82;6.22;;;;;;;15.99;18.10;101905.16;4416927;32;34041;-85
2022/03/22 09:10:57;;;;;;;16.35;9.70;;;;;;;15.50;18.83;101902.13;4402560;32;33423;-85
2022/03/22 09:13:28;;;;;;;6.47;5.95;;;;;;;15.70;19.99;101901.34;4401809;32;33591;-89
2022/03/22 09:15:56;;;;;;;6.72;6.12;;;;;;;15.96;18.34;101892.81;4430483;32;34555;-86
2022/03/22 09:18:26;;;;;;;8.88;6.15;;;;;;;16.00;18.23;101888.06;4403889;32;35458;-87
2022/03/22 09:20:53;;;;;;;6.82;6.18;;;;;;;15.88;18.38;101889.94;4415900;32;33205;-86
2022/03/22 09:23:21;;;;;;;;;;;;;;;16.39;17.81;101892.78;4403738;32;33827;-85
2022/03/22 09:25:49;;;;;;;6.80;5.65;;;;;;;15.85;18.34;101884.81;4415415;32;35364;-82
2022/03/22 09:28:16;;;;;;;8.32;7.47;;;;;;;16.10;17.58;101884.47;4429686;32;34464;-82
2022/03/22 09:30:48;;;;;;;;;;;;;;;16.20;19.26;101884.53;4414886;32;34136;-83
2022/03/22 09:33:17;;;;;;;7.32;6.35;;;;;;;16.32;17.87;101872.78;4412315;32;33688;-85
2022/03/22 09:35:47;;;;;;;16.45;7.07;;;;;;;16.26;17.89;101879.50;4413916;32;34640;-84
2022/03/22 09:38:16;;;;;;;10.30;7.22;;;;;;;16.15;18.56;101879.56;4428673;32;35368;-86
2022/03/22 09:40:44;;;;;;;19.10;7.60;;;;;;;16.76;17.34;101867.97;4428477;32;32576;-87
2022/03/22 09:43:12;;;;;;;7.18;6.50;;;;;;;16.58;19.37;101869.56;4428939;32;33229;-86
2022/03/22 09:45:42;;;;;;;6.72;6.12;;;;;;;17.16;17.52;101868.03;4414176;32;34851;-85
2022/03/22 09:48:16;;;;;;;33.70;6.97;;;;;;;16.96;17.41;101866.22;4415447;32;34021;-86
2022/03/22 09:53:31;;;;;;;12.60;10.32;;;;;;;17.44;17.05;101869.97;4416824;32;33830;-87
2022/03/22 09:55:58;;;;;;;9.60;6.20;;;;;;;17.54;17.21;101863.59;4414494;32;34707;-84
2022/03/22 09:58:26;;;;;;;6.90;6.18;;;;;;;17.64;17.49;101857.25;4414779;32;33734;-85
2022/03/22 10:00:53;;;;;;;;;;;;;;;17.67;16.67;101853.44;4429097;32;33060;-85
2022/03/22 10:03:21;;;;;;;;;;;;;;;17.69;16.32;101851.47;4414885;32;33858;-88
2022/03/22 10:06:17;;;;;;;9.80;7.10;;;;;;;17.58;17.59;101857.81;4414961;32;34849;-85
2022/03/22 10:08:51;;;;;;;9.85;6.72;;;;;;;17.54;19.61;101856.41;4412202;32;33591;-85
2022/03/22 10:11:20;;;;;;;14.68;6.00;;;;;;;17.67;18.69;101851.59;4390528;32;31681;-87
2022/03/22 10:13:51;;;;;;;6.28;5.70;;;;;;;18.08;15.99;101842.38;4429135;32;33170;-82
2022/03/22 10:16:19;;;;;;;8.40;5.85;;;;;;;18.38;15.96;101842.22;4415440;32;34358;-83
2022/03/22 10:18:47;;;;;;;17.23;6.80;;;;;;;18.26;16.67;101835.28;4429382;32;34679;-84
2022/03/22 10:21:14;;;;;;;;;;;;;;;18.58;15.81;101836.66;4403413;32;33874;-83
2022/03/22 10:23:54;;;;;;;7.78;5.90;;;;;;;18.32;15.65;101834.75;4428929;32;33840;-84
2022/03/22 10:26:33;;;;;;;9.27;7.47;;;;;;;18.34;15.72;101840.84;4401270;32;34731;-84
2022/03/22 10:29:00;;;;;;;11.15;6.95;;;;;;;17.89;16.16;101845.09;4415124;32;34510;-84
2022/03/22 10:31:35;;;;;;;;;;;;;;;18.11;15.98;101828.62;4415828;32;33513;-83
2022/03/22 10:34:03;;;;;;;6.57;5.78;;;;;;;18.04;16.48;101831.03;4415370;32;34764;-83
2022/03/22 10:36:39;;;;;;;6.20;5.70;;;;;;;18.46;15.45;101829.75;4414480;32;35089;-83
2022/03/22 10:39:09;;;;;;;5.28;4.78;;;;;;;18.78;16.97;101826.66;4401616;32;34101;-82
2022/03/22 10:41:39;;;;;;;13.18;6.93;;;;;;;19.04;15.08;101820.44;4401635;32;33830;-83
2022/03/22 10:44:09;;;;;;;8.70;6.50;;;;;;;19.28;14.46;101823.44;4402715;32;34391;-83
2022/03/22 10:46:38;;;;;;;5.70;5.15;;;;;;;19.01;16.25;101815.34;4429941;32;35570;-85
2022/03/22 10:49:10;;;;;;;8.68;4.93;;;;;;;19.15;16.39;101814.00;4402836;32;34980;-85
2022/03/22 10:51:46;;;;;;;6.60;5.65;;;;;;;19.47;15.66;101809.84;4429624;32;33011;-85
2022/03/22 10:54:17;;;;;;;5.28;4.80;;;;;;;19.03;16.78;101807.09;4400696;32;33618;-85
2022/03/22 10:56:49;;;;;;;4.37;3.95;;;;;;;19.16;15.92;101800.34;4408582;32;34877;-84
2022/03/22 10:59:19;;;;;;;12.85;6.78;;;;;;;19.28;15.25;101796.44;4419952;32;33993;-85
2022/03/22 11:01:48;;;;;;;8.25;5.57;;;;;;;19.08;14.81;101800.22;4400719;32;34776;-84
2022/03/22 11:04:16;;;;;;;7.95;7.20;;;;;;;19.10;14.90;101798.25;4414370;32;33509;-84
2022/03/22 11:06:48;;;;;;;6.62;5.82;;;;;;;19.71;15.10;101785.75;4414220;32;34550;-85
2022/03/22 11:09:16;;;;;;;6.78;6.07;;;;;;;20.18;15.00;101776.41;4407437;32;107379;-85
2022/03/22 11:11:44;;;;;;;7.93;5.62;;;;;;;20.24;15.51;101778.47;4401455;32;35570;-84
2022/03/22 11:14:15;;;;;;;6.03;5.50;;;;;;;20.17;15.19;101774.69;4389801;32;33950;-85
2022/03/22 11:16:47;;;;;;;10.35;6.35;;;;;;;20.59;14.46;101768.38;4402660;32;35153;-85
2022/03/22 11:19:21;;;;;;;8.93;8.05;;;;;;;20.52;14.00;101772.72;4415959;32;34176;-85
2022/03/22 11:21:49;;;;;;;6.62;6.03;;;;;;;20.20;14.88;101760.84;4415233;32;33573;-83
2022/03/22 11:24:24;;;;;;;6.50;5.28;;;;;;;20.63;15.06;101764.34;4402254;32;32899;-85
2022/03/22 11:26:55;;;;;;;8.07;5.32;;;;;;;20.59;14.63;101751.31;4414769;32;34244;-84
2022/03/22 11:29:25;;;;;;;8.23;6.47;;;;;;;20.73;15.29;101754.25;4401196;32;32447;-85
2022/03/22 11:34:41;;;;;;;6.93;6.22;;;;;;;21.13;14.12;101748.16;4417202;32;33798;-86
2022/03/22 11:37:10;;;;;;;8.00;7.10;;;;;;;21.38;14.23;101742.66;4415178;32;35152;-83
2022/03/22 11:42:25;;;;;;;6.47;4.80;;;;;;;21.04;15.09;101736.47;4417410;32;33424;-85
2022/03/22 11:45:00;;;;;;;12.75;7.87;;;;;;;21.64;13.91;101735.25;4389878;32;32084;-85
2022/03/22 11:47:41;;;;;;;6.25;4.87;;;;;;;21.43;15.52;101736.72;4428579;32;34981;-84
2022/03/22 11:50:13;;;;;;;5.85;4.45;;;;;;;21.45;14.72;101735.53;4402040;32;34018;-85
2022/03/22 11:52:45;;;;;;;6.57;6.07;;;;;;;21.96;13.23;101721.69;4403340;32;33283;-85
2022/03/22 11:55:15;;;;;;;5.00;4.60;;;;;;;21.52;12.81;101725.72;4428430;32;34288;-87
2022/03/22 11:57:50;;;;;;;4.65;4.25;;;;;;;21.83;13.31;101725.94;4401906;32;34916;-87
2022/03/22 12:00:19;;;;;;;6.03;3.95;;;;;;;21.28;12.99;101722.16;4428708;32;34454;-86
2022/03/22 12:02:53;;;;;;;5.28;4.15;;;;;;;21.56;12.87;101716.28;4402062;32;33865;-85
2022/03/22 12:05:23;;;;;;;9.68;5.68;;;;;;;21.16;13.97;101709.94;4416538;32;34424;-86
2022/03/22 12:07:51;;;;;;;7.03;4.43;;;;;;;21.75;14.90;101704.25;4417000;32;35019;-87
2022/03/22 12:10:20;;;;;;;;;;;;;;;21.90;14.54;101702.56;4430833;32;33962;-86
2022/03/22 12:12:49;;;;;;;5.25;4.65;;;;;;;22.49;13.03;101697.56;4403987;32;31298;-85
2022/03/22 12:15:19;;;;;;;3.78;3.47;;;;;;;23.03;11.90;101691.16;4416634;32;33596;-86